createdAt,value
2023-01-23T00:01:25.409Z,28.00
2023-01-23T00:03:54.404Z,26.73
2023-01-23T00:06:22.332Z,23.13
2023-01-23T00:08:49.314Z,25.40
2023-01-23T00:11:19.331Z,24.83
2023-01-23T00:13:46.594Z,27.17
2023-01-23T00:16:22.473Z,24.05
2023-01-23T00:18:50.202Z,21.67
2023-01-23T00:21:19.984Z,21.27
2023-01-23T00:23:50.242Z,23.20
2023-01-23T00:26:20.887Z,23.42
2023-01-23T00:28:48.728Z,20.45
2023-01-23T00:31:22.627Z,22.35
2023-01-23T00:33:54.593Z,24.08
2023-01-23T00:36:24.129Z,21.15
2023-01-23T00:38:51.274Z,22.98
2023-01-23T00:41:18.588Z,21.88
2023-01-23T00:43:47.003Z,21.42
2023-01-23T00:46:14.730Z,24.98
2023-01-23T00:48:41.788Z,21.52
2023-01-23T00:51:09.245Z,19.35
2023-01-23T00:53:36.347Z,20.92
2023-01-23T00:56:04.096Z,26.38
2023-01-23T00:58:31.431Z,22.15
2023-01-23T01:00:58.891Z,20.95
2023-01-23T01:03:26.057Z,20.25
2023-01-23T01:05:53.824Z,24.08
2023-01-23T01:08:21.157Z,21.63
2023-01-23T01:10:48.733Z,23.30
2023-01-23T01:13:19.594Z,23.20
2023-01-23T01:15:51.241Z,23.83
2023-01-23T01:18:19.605Z,22.70
2023-01-23T01:20:47.923Z,20.75
2023-01-23T01:23:16.134Z,22.20
2023-01-23T01:25:43.588Z,20.80
2023-01-23T01:28:10.655Z,22.40
2023-01-23T01:30:38.644Z,20.48
2023-01-23T01:33:05.833Z,20.92
2023-01-23T01:35:33.634Z,25.20
2023-01-23T01:38:00.781Z,18.98
2023-01-23T01:40:32.769Z,18.23
2023-01-23T01:43:06.805Z,19.65
2023-01-23T01:46:02.659Z,25.92
2023-01-23T01:49:02.139Z,20.95
2023-01-23T01:51:53.194Z,21.23
2023-01-23T01:54:43.740Z,20.83
2023-01-23T01:57:24.966Z,19.48
2023-01-23T01:59:58.124Z,19.45
2023-01-23T02:02:53.372Z,21.00
2023-01-23T02:05:30.375Z,20.90
2023-01-23T02:10:46.192Z,19.77
2023-01-23T02:13:20.972Z,20.90
2023-01-23T02:15:48.773Z,20.70
2023-01-23T02:18:16.476Z,19.55
2023-01-23T02:20:43.719Z,18.17
2023-01-23T02:23:48.910Z,19.90
2023-01-23T02:26:27.719Z,19.55
2023-01-23T02:28:56.020Z,17.92
2023-01-23T02:31:27.550Z,19.35
2023-01-23T02:33:57.381Z,14.57
2023-01-23T02:36:28.442Z,16.20
2023-01-23T02:39:19.109Z,18.83
2023-01-23T02:41:53.025Z,18.58
2023-01-23T02:44:27.204Z,20.23
2023-01-23T02:47:04.032Z,14.30
2023-01-23T02:49:32.574Z,16.95
2023-01-23T02:52:00.130Z,19.02
2023-01-23T02:54:27.307Z,19.80
2023-01-23T02:56:54.742Z,19.67
2023-01-23T02:59:42.242Z,15.88
2023-01-23T03:02:10.275Z,22.95
2023-01-23T03:04:37.437Z,20.35
2023-01-23T03:07:05.003Z,16.23
2023-01-23T03:09:32.129Z,16.92
2023-01-23T03:12:00.840Z,15.75
2023-01-23T03:14:28.194Z,17.70
2023-01-23T03:16:55.643Z,18.55
2023-01-23T03:19:29.740Z,17.23
2023-01-23T03:21:57.171Z,16.83
2023-01-23T03:24:24.266Z,18.10
2023-01-23T03:26:52.065Z,17.20
2023-01-23T03:29:43.219Z,17.10
2023-01-23T03:32:13.868Z,17.65
2023-01-23T03:34:42.537Z,15.98
2023-01-23T03:37:11.767Z,14.70
2023-01-23T03:39:58.628Z,16.23
2023-01-23T03:42:26.951Z,15.27
2023-01-23T03:44:56.838Z,16.00
2023-01-23T03:47:27.624Z,18.27
2023-01-23T03:49:55.613Z,14.85
2023-01-23T03:52:23.335Z,13.77
2023-01-23T03:54:50.749Z,15.85
2023-01-23T03:57:18.626Z,15.00
2023-01-23T03:59:48.600Z,16.48
2023-01-23T04:02:19.261Z,15.63
2023-01-23T04:04:46.370Z,15.32
2023-01-23T04:07:14.027Z,15.48
2023-01-23T04:09:43.124Z,19.00
2023-01-23T04:12:10.488Z,13.20
2023-01-23T04:14:41.642Z,14.88
2023-01-23T04:17:10.871Z,12.07
2023-01-23T04:19:37.881Z,16.48
2023-01-23T04:22:05.380Z,17.42
2023-01-23T04:24:39.416Z,18.83
2023-01-23T04:27:06.839Z,16.48
2023-01-23T04:29:35.344Z,15.82
2023-01-23T04:32:04.707Z,14.57
2023-01-23T04:34:35.563Z,13.98
2023-01-23T04:37:03.323Z,14.88
2023-01-23T04:39:31.897Z,14.18
2023-01-23T04:41:59.788Z,18.15
2023-01-23T04:44:37.062Z,15.13
2023-01-23T04:47:33.554Z,13.30
2023-01-23T04:50:02.842Z,13.70
2023-01-23T04:52:33.745Z,21.67
2023-01-23T04:55:00.862Z,15.52
2023-01-23T04:57:28.342Z,14.88
2023-01-23T05:00:03.497Z,14.65
2023-01-23T05:02:31.536Z,19.23
2023-01-23T05:04:58.731Z,13.93
2023-01-23T05:07:26.981Z,15.65
2023-01-23T05:10:06.106Z,14.25
2023-01-23T05:12:34.429Z,17.25
2023-01-23T05:15:03.392Z,13.02
2023-01-23T05:17:32.060Z,16.77
2023-01-23T05:19:59.275Z,15.95
2023-01-23T05:22:26.816Z,17.38
2023-01-23T05:24:54.230Z,17.58
2023-01-23T05:27:21.943Z,24.05
2023-01-23T05:29:50.294Z,18.52
2023-01-23T05:32:22.448Z,28.08
2023-01-23T05:35:07.572Z,23.63
2023-01-23T05:37:36.538Z,24.17
2023-01-23T05:40:13.789Z,25.08
2023-01-23T05:42:59.749Z,41.97
2023-01-23T05:45:46.741Z,33.60
2023-01-23T05:48:25.110Z,23.60
2023-01-23T05:50:52.248Z,36.50
2023-01-23T05:53:20.443Z,28.90
2023-01-23T05:55:47.558Z,25.92
2023-01-23T05:58:16.206Z,24.58
2023-01-23T06:01:09.435Z,43.40
2023-01-23T06:03:55.346Z,23.10
2023-01-23T06:06:35.616Z,23.17
2023-01-23T06:09:03.121Z,23.85
2023-01-23T06:11:30.532Z,20.63
2023-01-23T06:13:57.970Z,24.58
2023-01-23T06:16:24.995Z,25.75
2023-01-23T06:18:52.786Z,29.63
2023-01-23T06:21:20.073Z,22.65
2023-01-23T06:23:48.255Z,20.77
2023-01-23T06:26:16.512Z,19.88
2023-01-23T06:28:44.807Z,23.10
2023-01-23T06:31:13.083Z,19.38
2023-01-23T06:34:00.724Z,25.55
2023-01-23T06:36:36.465Z,15.87
2023-01-23T06:39:04.544Z,22.35
2023-01-23T06:41:38.250Z,22.67
2023-01-23T06:44:08.137Z,22.55
2023-01-23T06:46:36.340Z,17.30
2023-01-23T06:49:06.394Z,28.23
2023-01-23T06:51:37.191Z,28.73
2023-01-23T06:54:07.188Z,26.48
2023-01-23T06:56:35.242Z,25.95
2023-01-23T06:59:06.626Z,24.55
2023-01-23T07:01:34.347Z,25.35
2023-01-23T07:04:16.381Z,29.67
2023-01-23T07:06:44.878Z,27.35
2023-01-23T07:09:15.288Z,29.50
2023-01-23T07:11:46.592Z,25.10
2023-01-23T07:14:14.167Z,24.52
2023-01-23T07:16:42.324Z,23.73
2023-01-23T07:19:10.254Z,22.48
2023-01-23T07:21:39.705Z,29.45
2023-01-23T07:24:07.265Z,21.90
2023-01-23T07:26:34.367Z,24.63
2023-01-23T07:29:02.002Z,22.10
2023-01-23T07:31:29.165Z,21.00
2023-01-23T07:33:56.966Z,21.45
2023-01-23T07:36:24.025Z,27.25
2023-01-23T07:38:51.397Z,24.33
2023-01-23T07:41:18.427Z,23.00
2023-01-23T07:43:45.805Z,19.85
2023-01-23T07:46:12.843Z,22.08
2023-01-23T07:48:40.559Z,20.90
2023-01-23T07:51:07.830Z,21.40
2023-01-23T07:53:35.623Z,23.17
2023-01-23T07:56:06.359Z,21.45
2023-01-23T07:58:33.913Z,19.30
2023-01-23T08:01:08.919Z,20.63
2023-01-23T08:03:36.436Z,20.73
2023-01-23T08:06:03.673Z,23.05
2023-01-23T08:08:31.125Z,19.17
2023-01-23T08:10:58.260Z,22.70
2023-01-23T08:13:25.680Z,20.23
2023-01-23T08:15:53.404Z,21.42
2023-01-23T08:18:20.811Z,16.27
2023-01-23T08:20:54.395Z,19.55
2023-01-23T08:23:28.445Z,20.15
2023-01-23T08:25:57.738Z,19.27
2023-01-23T08:28:26.189Z,19.67
2023-01-23T08:30:54.346Z,19.75
2023-01-23T08:33:22.131Z,20.52
2023-01-23T08:35:53.814Z,18.95
2023-01-23T08:38:21.721Z,22.27
2023-01-23T08:40:50.476Z,24.05
2023-01-23T08:43:19.440Z,20.92
2023-01-23T08:45:52.223Z,21.95
2023-01-23T08:48:20.872Z,23.67
2023-01-23T08:50:48.053Z,22.90
2023-01-23T08:53:15.720Z,25.85
2023-01-23T08:55:42.982Z,28.92
2023-01-23T08:58:13.955Z,39.00
2023-01-23T09:00:41.889Z,36.75
2023-01-23T09:03:11.414Z,28.42
2023-01-23T09:05:38.983Z,29.65
2023-01-23T09:08:06.376Z,25.80
2023-01-23T09:10:33.419Z,44.97
2023-01-23T09:13:00.997Z,26.90
2023-01-23T09:15:28.080Z,36.40
2023-01-23T09:17:55.389Z,25.83
2023-01-23T09:20:22.758Z,31.05
2023-01-23T09:22:51.268Z,20.95
2023-01-23T09:25:18.435Z,31.35
2023-01-23T09:27:45.781Z,29.73
2023-01-23T09:30:13.489Z,28.15
2023-01-23T09:32:40.807Z,35.95
2023-01-23T09:35:08.297Z,30.67
2023-01-23T09:37:58.509Z,34.22
2023-01-23T09:40:47.452Z,30.73
2023-01-23T09:43:20.531Z,29.40
2023-01-23T09:46:10.983Z,34.03
2023-01-23T09:48:45.619Z,30.98
2023-01-23T09:51:15.722Z,33.65
2023-01-23T09:53:43.035Z,30.95
2023-01-23T09:56:21.183Z,32.83
2023-01-23T09:59:07.551Z,36.30
2023-01-23T10:01:34.629Z,35.22
2023-01-23T10:04:03.025Z,31.65
2023-01-23T10:06:33.375Z,38.28
2023-01-23T10:09:15.589Z,41.70
2023-01-23T10:12:04.587Z,34.35
2023-01-23T10:14:56.588Z,46.67
2023-01-23T10:17:48.036Z,61.05
2023-01-23T10:20:51.204Z,43.30
2023-01-23T10:23:23.806Z,34.83
2023-01-23T10:25:51.584Z,39.60
2023-01-23T10:28:38.223Z,42.72
2023-01-23T10:31:26.831Z,39.03
2023-01-23T10:34:08.969Z,34.25
2023-01-23T10:36:59.410Z,41.10
2023-01-23T10:39:31.581Z,37.17
2023-01-23T10:42:02.550Z,42.08
2023-01-23T10:44:30.086Z,36.08
2023-01-23T10:47:02.000Z,29.00
2023-01-23T10:49:36.481Z,35.92
2023-01-23T10:52:05.786Z,30.58
2023-01-23T10:54:45.648Z,38.60
2023-01-23T10:57:12.965Z,36.78
2023-01-23T11:00:04.149Z,33.53
2023-01-23T11:02:34.194Z,38.30
2023-01-23T11:05:03.833Z,36.50
2023-01-23T11:07:36.940Z,33.45
2023-01-23T11:10:09.924Z,35.58
2023-01-23T11:12:51.721Z,33.92
2023-01-23T11:15:26.475Z,29.42
2023-01-23T11:17:56.822Z,33.40
2023-01-23T11:20:52.749Z,38.03
2023-01-23T11:23:20.700Z,37.80
2023-01-23T11:25:50.257Z,34.78
2023-01-23T11:28:20.623Z,35.33
2023-01-23T11:30:52.684Z,37.72
2023-01-23T11:33:26.384Z,38.20
2023-01-23T11:36:00.577Z,38.47
2023-01-23T11:38:37.675Z,40.13
2023-01-23T11:41:12.210Z,39.38
2023-01-23T11:43:41.184Z,46.38
2023-01-23T11:46:15.451Z,44.63
2023-01-23T11:49:17.781Z,47.63
2023-01-23T11:52:14.155Z,50.67
2023-01-23T11:55:10.645Z,53.10
2023-01-23T11:58:04.008Z,48.75
2023-01-23T12:00:56.042Z,56.15
2023-01-23T12:03:42.342Z,51.75
2023-01-23T12:06:26.975Z,33.10
2023-01-23T12:08:56.982Z,45.88
2023-01-23T12:11:30.629Z,47.35
2023-01-23T12:14:21.601Z,49.70
2023-01-23T12:17:08.960Z,45.75
2023-01-23T12:20:02.910Z,48.97
2023-01-23T12:22:36.424Z,42.33
2023-01-23T12:25:21.916Z,44.65
2023-01-23T12:27:57.889Z,44.70
2023-01-23T12:30:39.056Z,37.45
2023-01-23T12:33:27.942Z,37.20
2023-01-23T12:36:20.127Z,36.60
2023-01-23T12:39:08.807Z,45.47
2023-01-23T12:41:43.646Z,46.05
2023-01-23T12:44:18.302Z,50.90
2023-01-23T12:47:04.211Z,48.92
2023-01-23T12:49:39.224Z,41.65
2023-01-23T12:52:09.163Z,41.42
2023-01-23T12:54:53.682Z,60.13
2023-01-23T12:57:52.888Z,43.60
2023-01-23T13:00:48.537Z,38.13
2023-01-23T13:03:47.026Z,44.53
2023-01-23T13:06:26.807Z,42.25
2023-01-23T13:09:18.226Z,38.72
2023-01-23T13:12:01.311Z,41.90
2023-01-23T13:14:39.563Z,40.90
2023-01-23T13:17:39.599Z,32.73
2023-01-23T13:20:46.554Z,44.17
2023-01-23T13:23:34.264Z,43.08
2023-01-23T13:26:26.551Z,45.60
2023-01-23T13:28:58.924Z,38.38
2023-01-23T13:31:46.704Z,41.78
2023-01-23T13:34:17.509Z,39.80
2023-01-23T13:36:49.871Z,39.03
2023-01-23T13:39:17.483Z,42.45
2023-01-23T13:41:45.916Z,42.13
2023-01-23T13:44:41.543Z,42.67
2023-01-23T14:20:24.496Z,39.40
2023-01-23T14:22:55.447Z,44.80
2023-01-23T14:25:23.227Z,38.38
2023-01-23T14:28:03.738Z,42.15
2023-01-23T14:30:31.702Z,45.03
2023-01-23T14:32:59.351Z,45.60
2023-01-23T14:35:29.467Z,49.30
2023-01-23T14:38:03.029Z,45.95
2023-01-23T14:40:40.050Z,46.58
2023-01-23T14:43:22.617Z,49.90
2023-01-23T14:45:57.296Z,50.38
2023-01-23T14:48:24.865Z,43.22
2023-01-23T14:51:02.718Z,49.75
2023-01-23T14:53:30.082Z,49.08
2023-01-23T14:55:59.875Z,57.38
2023-01-23T14:58:28.729Z,47.92
2023-01-23T15:00:56.959Z,49.72
2023-01-23T15:03:40.904Z,60.35
2023-01-23T15:06:14.804Z,53.55
2023-01-23T15:08:42.881Z,55.38
2023-01-23T15:11:13.043Z,51.72
2023-01-23T15:13:48.941Z,57.53
2023-01-23T15:16:25.027Z,54.20
2023-01-23T15:19:01.396Z,53.58
2023-01-23T15:21:46.885Z,54.43
2023-01-23T15:24:14.242Z,64.28
2023-01-23T15:26:55.972Z,76.18
2023-01-23T15:29:23.437Z,123.20
2023-01-23T15:31:55.339Z,113.75
2023-01-23T15:34:24.803Z,179.50
2023-01-23T15:36:53.697Z,122.05
2023-01-23T15:39:33.245Z,87.25
2023-01-23T15:42:02.950Z,68.78
2023-01-23T15:44:32.439Z,51.03
2023-01-23T15:47:04.319Z,44.67
2023-01-23T15:49:33.846Z,46.97
2023-01-23T15:52:17.590Z,49.45
2023-01-23T15:54:45.341Z,53.33
2023-01-23T15:57:13.906Z,52.25
2023-01-23T15:59:41.597Z,46.75
2023-01-23T16:02:29.643Z,56.75
2023-01-23T16:04:58.774Z,52.35
2023-01-23T16:07:37.382Z,49.28
2023-01-23T16:10:18.234Z,50.90
2023-01-23T16:12:49.874Z,53.78
2023-01-23T16:15:21.477Z,58.08
2023-01-23T16:17:49.688Z,58.95
2023-01-23T16:20:29.901Z,58.55
2023-01-23T16:23:08.468Z,56.58
2023-01-23T16:25:45.155Z,56.22
2023-01-23T16:28:20.273Z,60.83
2023-01-23T16:30:48.746Z,54.90
2023-01-23T16:33:16.530Z,61.58
2023-01-23T16:35:44.800Z,66.38
2023-01-23T16:38:26.494Z,62.30
2023-01-23T16:40:55.011Z,53.08
2023-01-23T16:43:23.171Z,46.80
2023-01-23T16:45:54.249Z,56.17
2023-01-23T16:48:27.956Z,49.65
2023-01-23T16:51:13.484Z,59.08
2023-01-23T16:53:56.100Z,57.00
2023-01-23T16:56:30.511Z,94.68
2023-01-23T16:58:58.073Z,48.95
2023-01-23T17:01:26.575Z,48.35
2023-01-23T17:03:59.971Z,45.20
2023-01-23T17:06:27.471Z,51.38
2023-01-23T17:08:56.139Z,50.65
2023-01-23T17:11:29.375Z,45.63
2023-01-23T17:14:00.720Z,54.33
2023-01-23T17:16:29.247Z,62.00
2023-01-23T17:19:00.550Z,45.58
2023-01-23T17:21:32.663Z,53.22
2023-01-23T17:23:59.882Z,50.40
2023-01-23T17:26:27.247Z,55.05
2023-01-23T17:28:54.606Z,50.95
2023-01-23T17:31:28.267Z,36.50
2023-01-23T17:33:55.845Z,47.55
2023-01-23T17:36:25.178Z,51.17
2023-01-23T17:38:55.465Z,48.30
2023-01-23T17:41:22.875Z,51.17
2023-01-23T17:43:51.427Z,41.60
2023-01-23T17:46:22.811Z,44.03
2023-01-23T17:48:50.152Z,45.50
2023-01-23T17:51:19.404Z,41.92
2023-01-23T17:53:47.028Z,44.03
2023-01-23T17:56:15.118Z,41.58
2023-01-23T17:58:42.227Z,42.78
2023-01-23T18:01:22.543Z,51.78
2023-01-23T18:03:51.510Z,48.08
2023-01-23T18:06:19.944Z,54.47
2023-01-23T18:08:47.338Z,50.42
2023-01-23T18:11:24.394Z,49.47
2023-01-23T18:14:09.048Z,52.92
2023-01-23T18:16:45.503Z,49.60
2023-01-23T18:19:18.553Z,47.08
2023-01-23T18:21:49.190Z,48.42
2023-01-23T18:24:37.469Z,42.72
2023-01-23T18:27:23.399Z,52.85
2023-01-23T18:30:01.803Z,75.43
2023-01-23T18:33:27.631Z,44.50
2023-01-23T18:36:25.659Z,49.38
2023-01-23T18:39:32.046Z,48.58
2023-01-23T18:42:23.863Z,37.65
2023-01-23T18:44:57.533Z,40.10
2023-01-23T18:47:25.682Z,44.35
2023-01-23T18:49:53.353Z,40.50
2023-01-23T18:52:28.105Z,35.08
2023-01-23T18:55:05.099Z,51.53
2023-01-23T18:57:53.675Z,39.70
2023-01-23T19:00:24.692Z,42.03
2023-01-23T19:03:09.011Z,37.75
2023-01-23T19:05:36.593Z,42.28
2023-01-23T19:08:03.824Z,41.58
2023-01-23T19:10:48.750Z,39.72
2023-01-23T19:13:34.960Z,38.08
2023-01-23T19:16:30.334Z,43.63
2023-01-23T19:19:19.718Z,41.28
2023-01-23T19:21:47.536Z,38.22
2023-01-23T19:24:18.646Z,46.75
2023-01-23T19:26:46.409Z,42.50
2023-01-23T19:29:21.988Z,49.15
2023-01-23T19:32:06.699Z,44.65
2023-01-23T19:34:34.515Z,40.10
2023-01-23T19:37:02.631Z,43.97
2023-01-23T19:39:29.652Z,46.67
2023-01-23T19:41:58.895Z,48.60
2023-01-23T19:44:28.840Z,51.38
2023-01-23T19:46:56.336Z,53.40
2023-01-23T19:49:25.091Z,53.38
2023-01-23T19:51:52.475Z,49.17
2023-01-23T19:54:20.482Z,51.40
2023-01-23T19:56:48.459Z,58.72
2023-01-23T19:59:15.536Z,57.85
2023-01-23T20:01:47.192Z,62.70
2023-01-23T20:04:17.400Z,64.72
2023-01-23T20:06:45.616Z,59.20
2023-01-23T20:09:17.641Z,61.42
2023-01-23T20:11:46.260Z,63.28
2023-01-23T20:14:13.492Z,53.35
2023-01-23T20:16:43.152Z,48.28
2023-01-23T20:19:15.416Z,52.05
2023-01-23T20:21:42.955Z,42.20
2023-01-23T20:24:10.145Z,37.08
2023-01-23T20:26:38.203Z,39.85
2023-01-23T20:29:07.045Z,40.78
2023-01-23T20:31:35.802Z,42.40
2023-01-23T20:34:03.137Z,42.13
2023-01-23T20:36:30.577Z,47.03
2023-01-23T20:38:57.791Z,42.13
2023-01-23T20:41:25.107Z,43.80
2023-01-23T20:43:52.210Z,48.10
2023-01-23T20:46:19.812Z,43.92
2023-01-23T20:48:47.666Z,44.25
2023-01-23T20:51:19.131Z,43.47
2023-01-23T20:53:46.297Z,40.47
2023-01-23T20:56:19.296Z,39.33
2023-01-23T20:59:07.431Z,41.75
2023-01-23T21:01:56.326Z,43.85
2023-01-23T21:04:26.108Z,48.42
2023-01-23T21:06:53.517Z,43.17
2023-01-23T21:09:21.754Z,48.35
2023-01-23T21:11:50.870Z,53.08
2023-01-23T21:14:18.231Z,57.75
2023-01-23T21:16:45.712Z,49.88
2023-01-23T21:19:13.416Z,54.22
2023-01-23T21:21:40.994Z,55.13
2023-01-23T21:24:08.346Z,41.90
2023-01-23T21:26:37.018Z,41.47
2023-01-23T21:29:04.912Z,38.75
2023-01-23T21:31:35.545Z,37.72
2023-01-23T21:34:05.208Z,38.22
2023-01-23T21:36:33.016Z,36.60
2023-01-23T21:39:00.484Z,42.25
2023-01-23T21:41:27.784Z,43.72
2023-01-23T21:43:54.784Z,108.13
2023-01-23T21:46:22.309Z,65.07
2023-01-23T21:48:49.401Z,55.50
2023-01-23T21:51:19.691Z,56.22
2023-01-23T21:53:48.370Z,57.08
2023-01-23T21:56:21.230Z,45.08
2023-01-23T21:58:49.026Z,45.40
2023-01-23T22:01:39.432Z,42.05
2023-01-23T22:04:09.553Z,44.50
2023-01-23T22:06:39.489Z,46.30
2023-01-23T22:09:08.141Z,47.15
2023-01-23T22:11:35.677Z,48.13
2023-01-23T22:14:03.169Z,48.75
2023-01-23T22:16:47.594Z,50.15
2023-01-23T22:19:24.611Z,52.33
2023-01-23T22:24:23.418Z,46.53
2023-01-23T22:26:50.762Z,48.42
2023-01-23T22:29:17.911Z,42.10
2023-01-23T22:31:45.318Z,37.88
2023-01-23T22:34:12.414Z,43.63
2023-01-23T22:36:40.303Z,42.10
2023-01-23T22:39:07.319Z,47.45
2023-01-23T22:41:34.621Z,46.17
2023-01-23T22:44:01.811Z,47.72
2023-01-23T22:46:29.438Z,43.75
2023-01-23T22:48:56.508Z,42.40
2023-01-23T22:51:26.277Z,40.33
2023-01-23T22:53:54.771Z,42.38
2023-01-23T22:56:23.350Z,42.60
2023-01-23T22:58:51.580Z,38.55
2023-01-23T23:01:20.540Z,41.15
2023-01-23T23:03:47.693Z,40.85
2023-01-23T23:06:16.817Z,41.00
2023-01-23T23:08:47.383Z,39.17
2023-01-23T23:11:21.898Z,41.53
2023-01-23T23:13:49.634Z,38.85
2023-01-23T23:16:27.934Z,34.70
2023-01-23T23:18:56.380Z,40.50
2023-01-23T23:21:28.346Z,37.35
2023-01-23T23:23:59.941Z,37.03
2023-01-23T23:26:30.726Z,32.03
2023-01-23T23:28:59.292Z,41.28
2023-01-23T23:31:27.050Z,37.63
2023-01-23T23:33:54.400Z,40.10
2023-01-23T23:36:21.935Z,43.00
2023-01-23T23:38:49.115Z,41.70
2023-01-23T23:41:17.132Z,47.78
2023-01-23T23:43:44.738Z,44.97
2023-01-23T23:46:13.355Z,46.17
2023-01-23T23:48:40.883Z,44.30
2023-01-23T23:51:11.230Z,40.53
2023-01-23T23:53:38.746Z,45.85
2023-01-23T23:56:07.591Z,40.05
2023-01-23T23:58:38.209Z,43.25
